createdAt,value
2016-06-04T00:00:46.622Z,985.1
2016-06-04T00:01:46.625Z,985.13
2016-06-04T00:02:46.612Z,985.12
2016-06-04T00:03:46.631Z,985.15
2016-06-04T00:04:46.618Z,985.18
2016-06-04T00:05:46.667Z,985.13
2016-06-04T00:06:46.639Z,985.13
2016-06-04T00:07:46.641Z,985.14
2016-06-04T00:08:46.644Z,985.17
2016-06-04T00:09:59.382Z,985.16
2016-06-04T00:11:05.852Z,985.18
2016-06-04T00:11:46.651Z,985.15
2016-06-04T00:12:46.655Z,985.11
2016-06-04T00:13:46.657Z,985.13
2016-06-04T00:14:46.660Z,985.12
2016-06-04T00:15:46.662Z,985.16
2016-06-04T00:16:46.665Z,985.15
2016-06-04T00:17:46.668Z,985.15
2016-06-04T00:18:46.670Z,985.15
2016-06-04T00:19:46.674Z,985.15
2016-06-04T00:20:46.676Z,985.16
2016-06-04T00:21:46.679Z,985.2
2016-06-04T00:22:46.681Z,985.18
2016-06-04T00:23:46.684Z,985.25
2016-06-04T00:24:46.703Z,985.22
2016-06-04T00:25:46.784Z,985.19
2016-06-04T00:27:05.895Z,985.22
2016-06-04T00:27:46.694Z,985.19
2016-06-04T00:28:46.698Z,985.21
2016-06-04T00:29:46.700Z,985.21
2016-06-04T00:30:46.703Z,985.21
2016-06-04T00:31:46.705Z,985.2
2016-06-04T00:32:46.724Z,985.17
2016-06-04T00:33:46.711Z,985.18
2016-06-04T00:34:46.714Z,985.21
2016-06-04T00:35:46.716Z,985.19
2016-06-04T00:36:46.719Z,985.17
2016-06-04T00:37:46.722Z,985.21
2016-06-04T00:38:46.725Z,985.18
2016-06-04T00:39:46.743Z,985.17
2016-06-04T00:40:47.090Z,985.2
2016-06-04T00:41:46.749Z,985.2
2016-06-04T00:42:46.891Z,985.23
2016-06-04T00:43:46.754Z,985.22
2016-06-04T00:44:46.865Z,985.17
2016-06-04T00:45:46.744Z,985.18
2016-06-04T00:46:46.762Z,985.21
2016-06-04T00:47:46.765Z,985.15
2016-06-04T00:48:46.751Z,985.24
2016-06-04T00:49:46.770Z,985.24
2016-06-04T00:50:46.773Z,985.21
2016-06-04T00:51:46.759Z,985.2
2016-06-04T00:52:46.763Z,985.24
2016-06-04T00:53:46.781Z,985.2
2016-06-04T00:54:46.783Z,985.2
2016-06-04T00:55:46.770Z,985.21
2016-06-04T00:56:46.804Z,985.22
2016-06-04T00:58:05.995Z,985.22
2016-06-04T00:58:46.806Z,985.23
2016-06-04T00:59:46.827Z,985.24
2016-06-04T01:00:46.862Z,985.2
2016-06-04T01:01:46.899Z,985.2
2016-06-04T01:02:46.935Z,985.22
2016-06-04T01:03:46.963Z,985.19
2016-06-04T01:04:46.994Z,985.2
2016-06-04T01:05:47.009Z,985.18
2016-06-04T01:06:47.007Z,985.19
2016-06-04T01:07:47.022Z,985.2
2016-06-04T01:08:47.049Z,985.21
2016-06-04T01:09:47.040Z,985.19
2016-06-04T01:10:47.094Z,985.17
2016-06-04T01:11:47.054Z,985.21
2016-06-04T01:12:47.077Z,985.21
2016-06-04T01:13:47.067Z,985.17
2016-06-04T01:15:06.290Z,985.18
2016-06-04T01:15:47.091Z,985.13
2016-06-04T01:16:47.173Z,985.18
2016-06-04T01:17:47.100Z,985.15
2016-06-04T01:18:47.087Z,985.15
2016-06-04T01:19:47.121Z,985.16
2016-06-04T01:20:47.110Z,985.15
2016-06-04T01:22:06.316Z,985.18
2016-06-04T01:22:47.116Z,985.17
2016-06-04T01:23:47.119Z,985.15
2016-06-04T01:24:47.106Z,985.15
2016-06-04T01:25:47.109Z,985.13
2016-06-04T01:26:47.190Z,985.13
2016-06-04T01:27:47.131Z,985.17
2016-06-04T01:28:47.134Z,985.15
2016-06-04T01:29:47.137Z,985.21
2016-06-04T01:30:47.140Z,985.17
2016-06-04T01:31:47.126Z,985.15
2016-06-04T01:32:47.145Z,985.17
2016-06-04T01:33:47.131Z,985.19
2016-06-04T01:34:47.151Z,985.18
2016-06-04T01:35:47.153Z,985.21
2016-06-04T01:36:47.156Z,985.18
2016-06-04T01:37:47.159Z,985.21
2016-06-04T01:38:47.161Z,985.2
2016-06-04T01:39:47.164Z,985.2
2016-06-04T01:40:47.370Z,985.22
2016-06-04T01:41:47.216Z,985.22
2016-06-04T01:42:47.219Z,985.24
2016-06-04T01:43:47.175Z,985.24
2016-06-04T01:44:47.177Z,985.23
2016-06-04T01:45:47.180Z,985.23
2016-06-04T01:46:47.183Z,985.24
2016-06-04T01:47:47.186Z,985.21
2016-06-04T01:48:47.188Z,985.21
2016-06-04T01:49:47.191Z,985.2
2016-06-04T01:50:47.193Z,985.21
2016-06-04T01:51:47.196Z,985.23
2016-06-04T01:53:06.402Z,985.22
2016-06-04T01:53:47.201Z,985.22
2016-06-04T01:54:47.204Z,985.21
2016-06-04T01:55:47.207Z,985.19
2016-06-04T01:56:47.507Z,985.18
2016-06-04T01:57:47.213Z,985.17
2016-06-04T01:58:47.215Z,985.19
2016-06-04T01:59:47.217Z,985.16
2016-06-04T02:00:47.221Z,985.11
2016-06-04T02:01:47.223Z,985.14
2016-06-04T02:02:47.225Z,985.1
2016-06-04T02:03:47.229Z,985.11
2016-06-04T02:04:47.231Z,985.1
2016-06-04T02:05:47.311Z,985.05
2016-06-04T02:06:47.237Z,985.06
2016-06-04T02:07:47.254Z,985.12
2016-06-04T02:08:47.241Z,985.05
2016-06-04T02:09:47.245Z,985.1
2016-06-04T02:10:47.248Z,985.11
2016-06-04T02:11:47.249Z,985.07
2016-06-04T02:12:47.253Z,985.13
2016-06-04T02:13:47.255Z,985.12
2016-06-04T02:14:47.258Z,985.08
2016-06-04T02:15:47.275Z,985.09
2016-06-04T02:17:06.466Z,985.09
2016-06-04T02:17:47.266Z,985.11
2016-06-04T02:18:47.269Z,985.08
2016-06-04T02:19:47.271Z,985.05
2016-06-04T02:20:47.274Z,985.08
2016-06-04T02:21:47.277Z,985.1
2016-06-04T02:22:47.295Z,985.09
2016-06-04T02:23:47.283Z,985.13
2016-06-04T02:24:47.285Z,985.12
2016-06-04T02:25:47.302Z,985.13
2016-06-04T02:26:47.290Z,985.1
2016-06-04T02:28:06.496Z,985.13
2016-06-04T02:28:47.295Z,985.09
2016-06-04T02:29:47.298Z,985.13
2016-06-04T02:30:47.285Z,985.1
2016-06-04T02:31:47.288Z,985.08
2016-06-04T02:32:47.306Z,985.07
2016-06-04T02:33:47.309Z,985.08
2016-06-04T02:34:47.312Z,985.07
2016-06-04T02:36:06.518Z,985.07
2016-06-04T02:36:47.317Z,985.11
2016-06-04T02:37:47.319Z,985.08
2016-06-04T02:38:47.323Z,985.08
2016-06-04T02:39:47.325Z,985.06
2016-06-04T02:40:47.312Z,985.08
2016-06-04T02:41:47.550Z,985.1
2016-06-04T02:42:47.520Z,985.09
2016-06-04T02:43:47.336Z,985.06
2016-06-04T02:44:47.339Z,985.08
2016-06-04T02:45:47.341Z,985.1
2016-06-04T02:47:06.547Z,985.07
2016-06-04T02:47:47.346Z,985.09
2016-06-04T02:48:47.349Z,985.06
2016-06-04T02:49:47.336Z,985.13
2016-06-04T02:50:47.355Z,985.08
2016-06-04T02:51:47.357Z,985.13
2016-06-04T02:52:47.360Z,985.13
2016-06-04T02:53:47.363Z,985.15
2016-06-04T02:54:47.366Z,985.15
2016-06-04T02:55:47.352Z,985.15
2016-06-04T02:56:47.355Z,985.14
2016-06-04T02:57:47.373Z,985.19
2016-06-04T02:58:47.360Z,985.16
2016-06-04T02:59:47.363Z,985.14
2016-06-04T03:00:47.382Z,985.13
2016-06-04T03:01:47.368Z,985.17
2016-06-04T03:02:47.418Z,985.19
2016-06-04T03:04:06.593Z,985.19
2016-06-04T03:04:47.393Z,985.16
2016-06-04T03:05:47.377Z,985.12
2016-06-04T03:06:47.379Z,985.2
2016-06-04T03:07:47.382Z,985.19
2016-06-04T03:08:47.385Z,985.19
2016-06-04T03:09:47.403Z,985.19
2016-06-04T03:10:47.390Z,985.19
2016-06-04T03:11:47.392Z,985.2
2016-06-04T03:12:47.395Z,985.23
2016-06-04T03:13:47.414Z,985.18
2016-06-04T03:14:47.401Z,985.19
2016-06-04T03:15:47.403Z,985.16
2016-06-04T03:16:47.422Z,985.19
2016-06-04T03:17:47.409Z,985.19
2016-06-04T03:18:47.411Z,985.2
2016-06-04T03:19:47.415Z,985.2
2016-06-04T03:20:47.417Z,985.19
2016-06-04T03:21:47.419Z,985.2
2016-06-04T03:22:47.423Z,985.18
2016-06-04T03:23:47.425Z,985.21
2016-06-04T03:24:47.428Z,985.19
2016-06-04T03:25:47.430Z,985.21
2016-06-04T03:26:47.683Z,985.25
2016-06-04T03:27:47.436Z,985.28
2016-06-04T03:28:47.439Z,985.25
2016-06-04T03:29:47.441Z,985.28
2016-06-04T03:30:47.444Z,985.26
2016-06-04T03:32:00.185Z,985.26
2016-06-04T03:32:47.450Z,985.26
2016-06-04T03:33:47.451Z,985.29
2016-06-04T03:34:47.455Z,985.26
2016-06-04T03:35:47.457Z,985.28
2016-06-04T03:36:47.460Z,985.29
2016-06-04T03:37:47.462Z,985.26
2016-06-04T03:38:47.481Z,985.31
2016-06-04T03:39:47.453Z,985.27
2016-06-04T03:40:47.456Z,985.26
2016-06-04T03:41:47.473Z,985.26
2016-06-04T03:42:47.507Z,985.26
2016-06-04T03:43:47.463Z,985.25
2016-06-04T03:44:47.466Z,985.28
2016-06-04T03:45:47.484Z,985.24
2016-06-04T03:46:47.472Z,985.23
2016-06-04T03:47:47.475Z,985.29
2016-06-04T03:48:47.477Z,985.25
2016-06-04T03:49:47.495Z,985.26
2016-06-04T03:50:47.482Z,985.29
2016-06-04T03:51:47.485Z,985.26
2016-06-04T03:52:47.549Z,985.26
2016-06-04T03:53:47.569Z,985.29
2016-06-04T03:54:47.508Z,985.26
2016-06-04T03:55:47.496Z,985.3
2016-06-04T03:56:47.513Z,985.3
2016-06-04T03:57:47.516Z,985.31
2016-06-04T03:58:47.504Z,985.27
2016-06-04T03:59:47.507Z,985.29
2016-06-04T04:00:47.509Z,985.31
2016-06-04T04:01:47.527Z,985.32
2016-06-04T04:02:47.515Z,985.29
2016-06-04T04:03:47.518Z,985.32
2016-06-04T04:04:47.535Z,985.3
2016-06-04T04:05:47.523Z,985.33
2016-06-04T04:06:47.541Z,985.33
2016-06-04T04:07:47.528Z,985.35
2016-06-04T04:08:47.546Z,985.37
2016-06-04T04:09:47.533Z,985.34
2016-06-04T04:11:06.789Z,985.35
2016-06-04T04:11:47.539Z,985.37
2016-06-04T04:12:47.557Z,985.42
2016-06-04T04:13:47.575Z,985.42
2016-06-04T04:14:47.562Z,985.44
2016-06-04T04:15:47.550Z,985.45
2016-06-04T04:16:47.552Z,985.45
2016-06-04T04:17:47.570Z,985.43
2016-06-04T04:18:47.558Z,985.47
2016-06-04T04:19:47.560Z,985.47
2016-06-04T04:20:47.563Z,985.48
2016-06-04T04:21:47.581Z,985.51
2016-06-04T04:22:47.584Z,985.48
2016-06-04T04:23:47.586Z,985.49
2016-06-04T04:24:47.589Z,985.47
2016-06-04T04:25:48.311Z,985.49
2016-06-04T04:26:47.595Z,985.52
2016-06-04T04:27:47.597Z,985.49
2016-06-04T04:28:47.600Z,985.49
2016-06-04T04:29:47.603Z,985.5
2016-06-04T04:30:47.605Z,985.48
2016-06-04T04:31:47.607Z,985.52
2016-06-04T04:32:47.610Z,985.51
2016-06-04T04:33:47.613Z,985.49
2016-06-04T04:34:47.616Z,985.49
2016-06-04T04:35:47.618Z,985.54
2016-06-04T04:36:47.621Z,985.54
2016-06-04T04:37:47.624Z,985.51
2016-06-04T04:38:47.626Z,985.57
2016-06-04T04:40:00.367Z,985.53
2016-06-04T04:40:48.179Z,985.49
2016-06-04T04:41:47.635Z,985.49
2016-06-04T04:42:47.700Z,985.52
2016-06-04T04:43:47.640Z,985.5
2016-06-04T04:44:47.659Z,985.51
2016-06-04T04:45:47.646Z,985.47
2016-06-04T04:46:47.664Z,985.48
2016-06-04T04:47:47.651Z,985.45
2016-06-04T04:48:47.653Z,985.5
2016-06-04T04:49:47.672Z,985.49
2016-06-04T04:50:47.675Z,985.51
2016-06-04T04:51:47.662Z,985.5
2016-06-04T04:52:47.664Z,985.48
2016-06-04T04:53:47.667Z,985.49
2016-06-04T04:54:47.670Z,985.53
2016-06-04T04:55:47.673Z,985.54
2016-06-04T04:56:47.675Z,985.53
2016-06-04T04:57:47.677Z,985.55
2016-06-04T04:58:47.681Z,985.53
2016-06-04T04:59:47.683Z,985.54
2016-06-04T05:00:47.685Z,985.51
2016-06-04T05:01:47.688Z,985.53
2016-06-04T05:02:47.691Z,985.54
2016-06-04T05:03:47.694Z,985.53
2016-06-04T05:05:06.902Z,985.54
2016-06-04T05:05:47.699Z,985.55
2016-06-04T05:06:47.702Z,985.53
2016-06-04T05:07:47.705Z,985.53
2016-06-04T05:08:47.707Z,985.53
2016-06-04T05:09:47.726Z,985.57
2016-06-04T05:10:47.713Z,985.55
2016-06-04T05:11:47.715Z,985.56
2016-06-04T05:12:47.734Z,985.57
2016-06-04T05:13:47.721Z,985.56
2016-06-04T05:14:47.740Z,985.55
2016-06-04T05:15:47.726Z,985.56
2016-06-04T05:16:47.728Z,985.58
2016-06-04T05:17:47.732Z,985.6
2016-06-04T05:18:47.734Z,985.65
2016-06-04T05:19:47.753Z,985.61
2016-06-04T05:20:47.756Z,985.6
2016-06-04T05:21:47.759Z,985.6
2016-06-04T05:22:47.745Z,985.65
2016-06-04T05:23:47.747Z,985.66
2016-06-04T05:24:47.751Z,985.61
2016-06-04T05:25:47.769Z,985.63
2016-06-04T05:26:47.772Z,985.7
2016-06-04T05:27:47.758Z,985.69
2016-06-04T05:28:47.761Z,985.69
2016-06-04T05:29:47.780Z,985.7
2016-06-04T05:30:47.766Z,985.66
2016-06-04T05:31:47.785Z,985.73
2016-06-04T05:32:47.788Z,985.69
2016-06-04T05:33:47.775Z,985.72
2016-06-04T05:34:47.793Z,985.68
2016-06-04T05:35:47.780Z,985.68
2016-06-04T05:37:00.521Z,985.71
2016-06-04T05:37:54.069Z,985.71
2016-06-04T05:38:47.788Z,985.71
2016-06-04T05:39:47.822Z,985.7
2016-06-04T05:40:47.810Z,985.74
2016-06-04T05:41:48.187Z,985.68
2016-06-04T05:42:47.862Z,985.7
2016-06-04T05:43:47.817Z,985.72
2016-06-04T05:44:47.820Z,985.71
2016-06-04T05:45:47.823Z,985.78
2016-06-04T05:46:47.840Z,985.72
2016-06-04T05:47:47.828Z,985.78
2016-06-04T05:48:47.831Z,985.76
2016-06-04T05:49:47.834Z,985.75
2016-06-04T05:50:47.836Z,985.74
2016-06-04T05:51:47.839Z,985.75
2016-06-04T05:53:07.047Z,985.77
2016-06-04T05:53:47.844Z,985.79
2016-06-04T05:54:47.847Z,985.76
2016-06-04T05:55:48.084Z,985.77
2016-06-04T05:56:47.852Z,985.76
2016-06-04T05:57:47.855Z,985.8
2016-06-04T05:58:47.873Z,985.8
2016-06-04T05:59:47.861Z,985.82
2016-06-04T06:00:47.863Z,985.78
2016-06-04T06:01:47.881Z,985.8
2016-06-04T06:02:47.883Z,985.8
2016-06-04T06:03:47.872Z,985.8
2016-06-04T06:04:47.874Z,985.8
2016-06-04T06:05:47.877Z,985.8
2016-06-04T06:06:47.879Z,985.78
2016-06-04T06:07:47.882Z,985.79
2016-06-04T06:08:47.899Z,985.78
2016-06-04T06:09:47.902Z,985.79
2016-06-04T06:11:07.112Z,985.81
2016-06-04T06:11:47.908Z,985.84
2016-06-04T06:12:47.910Z,985.82
2016-06-04T06:13:47.929Z,985.84
2016-06-04T06:14:47.932Z,985.84
2016-06-04T06:15:47.935Z,985.82
2016-06-04T06:16:47.921Z,985.82
2016-06-04T06:17:47.940Z,985.86
2016-06-04T06:18:47.927Z,985.85
2016-06-04T06:19:47.945Z,985.86
2016-06-04T06:20:47.948Z,985.87
2016-06-04T06:21:47.935Z,985.85
2016-06-04T06:23:00.690Z,985.86
2016-06-04T06:23:47.956Z,985.86
2016-06-04T06:24:47.942Z,985.9
2016-06-04T06:25:47.961Z,985.88
2016-06-04T06:26:48.012Z,985.93
2016-06-04T06:27:47.967Z,985.92
2016-06-04T06:28:47.969Z,985.89
2016-06-04T06:29:47.972Z,985.93
2016-06-04T06:30:47.991Z,985.9
2016-06-04T06:31:47.977Z,985.94
2016-06-04T06:32:47.980Z,985.92
2016-06-04T06:33:47.983Z,985.92
2016-06-04T06:34:48.002Z,985.91
2016-06-04T06:35:48.004Z,985.93
2016-06-04T06:36:48.007Z,985.93
2016-06-04T06:37:48.010Z,985.93
2016-06-04T06:38:48.027Z,985.93
2016-06-04T06:39:48.015Z,985.96
2016-06-04T06:40:48.158Z,985.96
2016-06-04T06:41:48.004Z,985.97
2016-06-04T06:42:48.054Z,985.97
2016-06-04T06:43:48.026Z,985.94
2016-06-04T06:44:48.012Z,985.94
2016-06-04T06:45:48.015Z,985.92
2016-06-04T06:46:48.034Z,985.94
2016-06-04T06:47:48.037Z,985.96
2016-06-04T06:48:48.039Z,986.01
2016-06-04T06:50:07.247Z,985.99
2016-06-04T06:50:48.044Z,985.99
2016-06-04T06:51:48.032Z,985.95
2016-06-04T06:52:48.050Z,986
2016-06-04T06:53:48.053Z,986.02
2016-06-04T06:54:48.055Z,985.98
2016-06-04T06:55:48.058Z,986.04
2016-06-04T06:56:48.061Z,986.04
2016-06-04T06:57:48.063Z,986.08
2016-06-04T06:58:48.066Z,986.07
2016-06-04T06:59:48.069Z,986.07
2016-06-04T07:00:48.072Z,986.09
2016-06-04T07:01:48.075Z,986.07
2016-06-04T07:02:48.108Z,986.07
2016-06-04T07:03:48.080Z,986.09
2016-06-04T07:04:48.097Z,986.12
2016-06-04T07:05:48.100Z,986.12
2016-06-04T07:06:48.103Z,986.11
2016-06-04T07:07:48.106Z,986.14
2016-06-04T07:08:48.108Z,986.16
2016-06-04T07:09:48.095Z,986.14
2016-06-04T07:10:48.223Z,986.16
2016-06-04T07:11:48.116Z,986.18
2016-06-04T07:13:07.324Z,986.22
2016-06-04T07:13:48.121Z,986.2
2016-06-04T07:14:48.125Z,986.21
2016-06-04T07:15:48.127Z,986.24
2016-06-04T07:16:48.129Z,986.19
2016-06-04T07:17:48.148Z,986.25
2016-06-04T07:18:48.151Z,986.24
2016-06-04T07:19:48.154Z,986.27
2016-06-04T07:20:48.156Z,986.27
2016-06-04T07:21:48.159Z,986.29
2016-06-04T07:22:48.162Z,986.23
2016-06-04T07:23:48.165Z,986.23
2016-06-04T07:24:48.167Z,986.26
2016-06-04T07:25:48.231Z,986.25
2016-06-04T07:26:48.173Z,986.28
2016-06-04T07:28:07.381Z,986.29
2016-06-04T07:28:48.178Z,986.28
2016-06-04T07:29:48.197Z,986.27
2016-06-04T07:30:48.183Z,986.27
2016-06-04T07:31:48.186Z,986.33
2016-06-04T07:32:48.188Z,986.33
2016-06-04T07:33:48.191Z,986.31
2016-06-04T07:34:48.194Z,986.32
2016-06-04T07:35:48.213Z,986.33
2016-06-04T07:36:48.215Z,986.34
2016-06-04T07:37:48.218Z,986.32
2016-06-04T07:38:48.221Z,986.33
2016-06-04T07:40:07.444Z,986.36
2016-06-04T07:40:48.226Z,986.33
2016-06-04T07:41:48.229Z,986.34
2016-06-04T07:42:48.232Z,986.4
2016-06-04T07:43:48.250Z,986.35
2016-06-04T07:44:48.237Z,986.38
2016-06-04T07:46:07.460Z,986.4
2016-06-04T07:46:48.257Z,986.38
2016-06-04T07:47:48.276Z,986.35
2016-06-04T07:48:48.263Z,986.38
2016-06-04T07:49:48.265Z,986.35
2016-06-04T07:50:48.268Z,986.36
2016-06-04T07:51:48.271Z,986.36
2016-06-04T07:52:48.289Z,986.37
2016-06-04T07:53:48.276Z,986.35
2016-06-04T07:54:48.278Z,986.38
2016-06-04T07:55:48.298Z,986.37
2016-06-04T07:56:48.284Z,986.32
2016-06-04T07:57:48.303Z,986.33
2016-06-04T07:58:48.306Z,986.31
2016-06-04T07:59:48.308Z,986.29
2016-06-04T08:00:48.311Z,986.33
2016-06-04T08:01:48.314Z,986.29
2016-06-04T08:02:48.316Z,986.3
2016-06-04T08:03:48.319Z,986.32
2016-06-04T08:04:48.322Z,986.35
2016-06-04T08:05:48.339Z,986.31
2016-06-04T08:06:48.342Z,986.31
2016-06-04T08:07:48.330Z,986.32
2016-06-04T08:08:48.348Z,986.31
2016-06-04T08:09:54.616Z,986.34
2016-06-04T08:10:48.353Z,986.34
2016-06-04T08:11:48.371Z,986.36
2016-06-04T08:12:48.358Z,986.34
2016-06-04T08:13:48.377Z,986.38
2016-06-04T08:14:48.379Z,986.41
2016-06-04T08:15:48.367Z,986.42
2016-06-04T08:16:48.385Z,986.41
2016-06-04T08:17:48.388Z,986.43
2016-06-04T08:18:48.390Z,986.45
2016-06-04T08:19:48.393Z,986.5
2016-06-04T08:20:48.396Z,986.46
2016-06-04T08:21:48.414Z,986.47
2016-06-04T08:22:48.417Z,986.46
2016-06-04T08:23:48.419Z,986.49
2016-06-04T08:25:01.159Z,986.48
2016-06-04T08:25:49.097Z,986.53
2016-06-04T08:26:48.568Z,986.54
2016-06-04T08:27:48.431Z,986.53
2016-06-04T08:28:48.448Z,986.53
2016-06-04T08:29:48.451Z,986.5
2016-06-04T08:30:48.453Z,986.49
2016-06-04T08:31:48.456Z,986.49
2016-06-04T08:32:48.459Z,986.51
2016-06-04T08:33:48.461Z,986.48
2016-06-04T08:34:48.481Z,986.48
2016-06-04T08:35:48.483Z,986.48
2016-06-04T08:36:48.485Z,986.52
2016-06-04T08:37:48.488Z,986.51
2016-06-04T08:38:48.491Z,986.49
2016-06-04T08:39:48.493Z,986.55
2016-06-04T08:40:48.496Z,986.53
2016-06-04T08:41:48.515Z,986.5
2016-06-04T08:42:51.548Z,986.5
2016-06-04T08:43:48.520Z,986.48
2016-06-04T08:44:48.539Z,986.5
2016-06-04T08:45:48.541Z,986.5
2016-06-04T08:46:48.544Z,986.47
2016-06-04T08:47:48.562Z,986.5
2016-06-04T08:48:48.549Z,986.53
2016-06-04T08:49:48.568Z,986.53
2016-06-04T08:50:48.570Z,986.5
2016-06-04T08:51:48.573Z,986.48
2016-06-04T08:52:48.591Z,986.53
2016-06-04T08:53:48.593Z,986.53
2016-06-04T08:54:48.596Z,986.47
2016-06-04T08:55:48.599Z,986.45
2016-06-04T08:56:48.633Z,986.48
2016-06-04T08:57:51.651Z,986.41
2016-06-04T08:58:48.623Z,986.42
2016-06-04T08:59:48.625Z,986.41
2016-06-04T09:00:48.659Z,986.44
2016-06-04T09:01:48.647Z,986.43
2016-06-04T09:03:01.384Z,986.48
2016-06-04T09:03:48.652Z,986.51
2016-06-04T09:04:48.670Z,986.52
2016-06-04T09:05:48.673Z,986.55
2016-06-04T09:06:48.676Z,986.57
2016-06-04T09:07:48.678Z,986.56
2016-06-04T09:08:48.697Z,986.52
2016-06-04T09:09:48.700Z,986.47
2016-06-04T09:11:01.452Z,986.52
2016-06-04T09:11:48.721Z,986.48
2016-06-04T09:12:49.302Z,986.44
2016-06-04T09:13:48.741Z,986.42
2016-06-04T09:14:48.744Z,986.38
2016-06-04T09:15:48.746Z,986.39
2016-06-04T09:17:01.500Z,986.39
2016-06-04T09:17:48.768Z,986.37
2016-06-04T09:18:48.770Z,986.35
2016-06-04T09:19:48.789Z,986.36
2016-06-04T09:20:48.791Z,986.36
2016-06-04T09:21:48.794Z,986.35
2016-06-04T09:23:01.547Z,986.36
2016-06-04T09:23:48.815Z,986.33
2016-06-04T09:24:48.818Z,986.33
2016-06-04T09:25:48.852Z,986.33
2016-06-04T09:26:48.839Z,986.26
2016-06-04T09:27:48.842Z,986.22
2016-06-04T09:29:08.066Z,986.2
2016-06-04T09:29:48.863Z,986.27
2016-06-04T09:30:48.881Z,986.3
2016-06-04T09:31:48.867Z,986.29
2016-06-04T09:32:48.886Z,986.35
2016-06-04T09:33:48.906Z,986.32
2016-06-04T09:35:08.098Z,986.35
2016-06-04T09:35:48.895Z,986.38
2016-06-04T09:36:48.913Z,986.44
2016-06-04T09:37:48.916Z,986.46
2016-06-04T09:38:48.919Z,986.51
2016-06-04T09:39:48.921Z,986.52
2016-06-04T09:40:48.924Z,986.59
2016-06-04T09:41:48.942Z,986.57
2016-06-04T09:42:48.945Z,986.56
2016-06-04T09:43:48.947Z,986.61
2016-06-04T09:44:48.966Z,986.61
2016-06-04T09:45:48.952Z,986.63
2016-06-04T09:46:48.971Z,986.66
2016-06-04T09:47:48.974Z,986.72
2016-06-04T09:48:48.976Z,986.72
2016-06-04T09:50:01.713Z,986.69
2016-06-04T09:50:48.997Z,986.7
2016-06-04T09:51:49.000Z,986.68
2016-06-04T09:52:49.002Z,986.64
2016-06-04T09:53:49.020Z,986.63
2016-06-04T09:55:08.214Z,986.58
2016-06-04T09:55:49.026Z,986.62
2016-06-04T09:56:49.045Z,986.64
2016-06-04T09:57:49.047Z,986.62
2016-06-04T09:58:49.129Z,986.61
2016-06-04T09:59:49.037Z,986.56
2016-06-04T10:00:49.071Z,986.58
2016-06-04T10:01:49.058Z,986.62
2016-06-04T10:02:55.326Z,986.61
2016-06-04T10:03:49.064Z,986.7
2016-06-04T10:04:49.082Z,986.67
2016-06-04T10:05:49.101Z,986.65
2016-06-04T10:06:49.132Z,986.68
2016-06-04T10:07:49.162Z,986.71
2016-06-04T10:08:49.193Z,986.69
2016-06-04T10:10:01.958Z,986.7
2016-06-04T10:10:49.242Z,986.71
2016-06-04T10:11:49.255Z,986.72
2016-06-04T10:12:49.268Z,986.71
2016-06-04T10:13:49.297Z,986.74
2016-06-04T10:14:49.309Z,986.77
2016-06-04T10:15:49.334Z,986.74
2016-06-04T10:16:49.340Z,986.71
2016-06-04T10:18:02.079Z,986.75
2016-06-04T10:18:49.351Z,986.74
2016-06-04T10:19:49.373Z,986.81
2016-06-04T10:20:49.363Z,986.82
2016-06-04T10:21:49.367Z,986.86
2016-06-04T10:22:49.386Z,986.87
2016-06-04T10:23:49.375Z,986.88
2016-06-04T10:24:55.661Z,986.9
2016-06-04T10:25:49.398Z,986.96
2016-06-04T10:26:49.401Z,986.94
2016-06-04T10:27:49.405Z,986.98
2016-06-04T10:28:50.188Z,986.93
2016-06-04T10:29:49.427Z,986.94
2016-06-04T10:30:52.460Z,987
2016-06-04T10:31:49.432Z,986.95
2016-06-04T10:32:49.435Z,986.96
2016-06-04T10:33:49.437Z,987
2016-06-04T10:34:49.440Z,986.99
2016-06-04T10:35:55.708Z,986.99
2016-06-04T10:36:50.867Z,986.98
2016-06-04T10:37:49.463Z,987
2016-06-04T10:38:49.482Z,986.95
2016-06-04T10:39:49.469Z,986.95
2016-06-04T10:41:02.221Z,986.9
2016-06-04T10:41:49.474Z,986.94
2016-06-04T10:42:49.540Z,986.88
2016-06-04T10:44:02.465Z,986.88
2016-06-04T10:44:49.498Z,986.85
2016-06-04T10:45:49.501Z,986.91
2016-06-04T10:46:49.503Z,986.88
2016-06-04T10:47:49.507Z,986.86
2016-06-04T10:48:49.525Z,986.85
2016-06-04T10:50:02.261Z,986.87
2016-06-04T10:50:49.530Z,986.86
2016-06-04T10:51:49.533Z,986.88
2016-06-04T10:52:49.551Z,986.84
2016-06-04T10:54:02.272Z,986.89
2016-06-04T10:54:49.556Z,986.86
2016-06-04T10:55:49.543Z,986.9
2016-06-04T10:56:49.561Z,986.87
2016-06-04T10:57:49.564Z,986.87
2016-06-04T10:58:49.566Z,986.91
2016-06-04T10:59:49.570Z,986.86
2016-06-04T11:00:49.572Z,986.88
2016-06-04T11:01:49.575Z,986.89
2016-06-04T11:02:49.594Z,986.9
2016-06-04T11:03:49.613Z,986.95
2016-06-04T11:04:49.615Z,986.92
2016-06-04T11:06:08.807Z,986.94
2016-06-04T11:06:49.604Z,986.93
2016-06-04T11:07:49.638Z,986.92
2016-06-04T11:08:49.626Z,986.93
2016-06-04T11:09:49.628Z,986.92
2016-06-04T11:11:02.365Z,986.91
2016-06-04T11:11:49.633Z,986.94
2016-06-04T11:12:49.637Z,986.95
2016-06-04T11:13:49.654Z,986.94
2016-06-04T11:14:49.657Z,986.92
2016-06-04T11:15:49.676Z,986.9
2016-06-04T11:17:02.398Z,986.93
2016-06-04T11:17:49.665Z,986.91
2016-06-04T11:18:49.668Z,986.94
2016-06-04T11:19:49.671Z,986.91
2016-06-04T11:20:49.689Z,986.93
2016-06-04T11:21:49.692Z,986.9
2016-06-04T11:22:49.709Z,986.86
2016-06-04T11:23:49.712Z,986.85
2016-06-04T11:24:49.715Z,986.86
2016-06-04T11:25:49.718Z,986.88
2016-06-04T11:26:49.720Z,986.85
2016-06-04T11:27:49.755Z,986.82
2016-06-04T11:28:49.758Z,986.82
2016-06-04T11:29:49.745Z,986.81
2016-06-04T11:30:49.731Z,986.85
2016-06-04T11:31:49.750Z,986.82
2016-06-04T11:33:08.955Z,986.84
2016-06-04T11:33:49.755Z,986.83
2016-06-04T11:34:49.758Z,986.85
2016-06-04T11:35:49.761Z,986.84
2016-06-04T11:36:49.763Z,986.85
2016-06-04T11:37:49.765Z,986.87
2016-06-04T11:38:49.769Z,986.83
2016-06-04T11:40:02.521Z,986.9
2016-06-04T11:40:49.790Z,986.85
2016-06-04T11:41:49.792Z,986.84
2016-06-04T11:42:49.842Z,986.84
2016-06-04T11:43:49.797Z,986.85
2016-06-04T11:44:49.832Z,986.87
2016-06-04T11:46:02.553Z,986.86
2016-06-04T11:46:49.820Z,986.87
2016-06-04T11:47:49.824Z,986.86
2016-06-04T11:48:49.843Z,986.82
2016-06-04T11:49:49.845Z,986.82
2016-06-04T11:50:49.848Z,986.83
2016-06-04T11:51:49.851Z,986.81
2016-06-04T11:52:49.853Z,986.85
2016-06-04T11:53:49.872Z,986.81
2016-06-04T11:54:49.875Z,986.79
2016-06-04T11:55:49.877Z,986.78
2016-06-04T11:56:49.879Z,986.81
2016-06-04T11:57:56.164Z,986.71
2016-06-04T11:58:49.885Z,986.71
2016-06-04T11:59:49.903Z,986.72
2016-06-04T12:01:09.109Z,986.66
2016-06-04T12:01:49.908Z,986.7
2016-06-04T12:02:49.911Z,986.67
2016-06-04T12:03:49.944Z,986.65
2016-06-04T12:05:02.667Z,986.68
2016-06-04T12:05:49.935Z,986.68
2016-06-04T12:06:49.953Z,986.65
2016-06-04T12:07:49.940Z,986.66
2016-06-04T12:08:49.959Z,986.62
2016-06-04T12:09:49.961Z,986.6
2016-06-04T12:10:49.980Z,986.64
2016-06-04T12:11:50.357Z,986.61
2016-06-04T12:12:49.985Z,986.61
2016-06-04T12:13:49.988Z,986.63
2016-06-04T12:14:49.990Z,986.64
2016-06-04T12:15:49.993Z,986.62
2016-06-04T12:16:49.996Z,986.65
2016-06-04T12:17:50.014Z,986.63
2016-06-04T12:18:50.048Z,986.57
2016-06-04T12:19:50.020Z,986.58
2016-06-04T12:21:02.757Z,986.56
2016-06-04T12:21:50.040Z,986.54
2016-06-04T12:22:50.043Z,986.56
2016-06-04T12:23:50.045Z,986.57
2016-06-04T12:24:50.080Z,986.56
2016-06-04T12:25:50.067Z,986.59
2016-06-04T12:26:50.069Z,986.57
2016-06-04T12:27:50.073Z,986.55
2016-06-04T12:28:50.169Z,986.57
2016-06-04T12:29:50.094Z,986.53
2016-06-04T12:30:50.096Z,986.58
2016-06-04T12:31:50.099Z,986.58